Time;durP1;ratioP1;P1;durP2;ratioP2;P2;SDS_P1;SDS_P2;PMS_P1;PMS_P2;Temp;Humidity;BMP_temperature;BMP_pressure;BME280_temperature;BME280_humidity;BME280_pressure;Samples;Min_cycle;Max_cycle;Signal;HPM_P1;HPM_P2
2021/10/17 00:00:18;;;;;;;;;;;21.00;61.80;;;;;;5054281;28;1062;-71
2021/10/17 00:02:46;;;;;;;;;;;21.00;61.80;;;;;;5055253;28;1262;-71
2021/10/17 00:05:12;;;;;;;;;;;21.00;61.80;;;;;;5054725;28;1910;-71
2021/10/17 00:07:37;;;;;;;;;;;21.00;61.80;;;;;;5053687;28;1599;-71
2021/10/17 00:10:03;;;;;;;;;;;21.00;61.80;;;;;;5054944;28;1213;-71
2021/10/17 00:12:29;;;;;;;;;;;21.00;61.80;;;;;;5053700;28;1379;-72
2021/10/17 00:14:54;;;;;;;;;;;21.00;61.80;;;;;;5055069;28;1742;-72
2021/10/17 00:17:19;;;;;;;;;;;21.00;61.90;;;;;;5055115;28;1066;-71
2021/10/17 00:19:45;;;;;;;;;;;21.00;61.90;;;;;;5055048;28;1034;-71
2021/10/17 00:22:10;;;;;;;;;;;21.00;61.90;;;;;;5037173;28;1269;-71
2021/10/17 00:24:36;;;;;;;;;;;21.00;61.90;;;;;;5054701;28;1273;-72
2021/10/17 00:27:01;;;;;;;;;;;21.00;61.90;;;;;;5054771;28;1902;-71
2021/10/17 00:29:26;;;;;;;;;;;21.00;62.00;;;;;;5053843;28;809;-72
2021/10/17 00:31:52;;;;;;;;;;;21.00;62.00;;;;;;5053535;28;1434;-71
2021/10/17 00:34:18;;;;;;;;;;;21.00;62.00;;;;;;5054773;28;840;-71
2021/10/17 00:36:43;;;;;;;;;;;21.00;62.00;;;;;;5053543;28;1190;-72
2021/10/17 00:39:09;;;;;;;;;;;21.00;62.10;;;;;;5053297;28;1177;-72
2021/10/17 00:41:34;;;;;;;;;;;20.90;62.00;;;;;;5053450;28;1307;-71
2021/10/17 00:44:00;;;;;;;;;;;20.90;62.10;;;;;;5053516;28;1086;-72
2021/10/17 00:46:25;;;;;;;;;;;21.00;62.10;;;;;;5054377;28;1910;-71
2021/10/17 00:48:51;;;;;;;;;;;21.00;62.10;;;;;;5054637;28;788;-71
2021/10/17 00:51:16;;;;;;;;;;;20.90;62.00;;;;;;5054565;28;923;-71
2021/10/17 00:53:42;;;;;;;;;;;20.90;62.10;;;;;;5054328;28;1532;-71
2021/10/17 00:56:07;;;;;;;;;;;20.90;62.10;;;;;;5053124;28;836;-72
2021/10/17 00:58:32;;;;;;;;;;;20.90;62.10;;;;;;5053201;28;1323;-71
2021/10/17 01:00:58;;;;;;;;;;;20.90;62.10;;;;;;5053193;28;877;-72
2021/10/17 01:03:23;;;;;;;;;;;20.90;62.10;;;;;;5053001;28;1265;-71
2021/10/17 01:05:49;;;;;;;;;;;20.90;62.10;;;;;;5054111;28;1906;-71
2021/10/17 01:08:15;;;;;;;;;;;20.90;62.90;;;;;;5054159;28;840;-72
2021/10/17 01:10:40;;;;;;;;;;;20.90;62.20;;;;;;5053604;28;1108;-71
2021/10/17 01:13:06;;;;;;;;;;;20.90;62.20;;;;;;5050226;28;1310;-71
2021/10/17 01:15:31;;;;;;;;;;;20.90;62.20;;;;;;5037998;28;1256;-71
2021/10/17 01:17:56;;;;;;;;;;;20.90;62.20;;;;;;5044936;28;1808;-72
2021/10/17 01:20:22;;;;;;;;;;;20.90;62.20;;;;;;5044021;28;1164;-72
2021/10/17 01:22:47;;;;;;;;;;;20.90;62.20;;;;;;5044685;28;1291;-73
2021/10/17 01:25:13;;;;;;;;;;;20.90;62.20;;;;;;5040779;28;1894;-71
2021/10/17 01:27:38;;;;;;;;;;;20.90;62.20;;;;;;5046801;28;1236;-72
2021/10/17 01:30:04;;;;;;;;;;;20.90;62.20;;;;;;5043336;28;1360;-73
2021/10/17 01:32:30;;;;;;;;;;;20.90;62.30;;;;;;5045922;28;1361;-72
2021/10/17 01:34:55;;;;;;;;;;;20.90;62.30;;;;;;5039816;28;1261;-72
2021/10/17 01:37:21;;;;;;;;;;;20.90;62.30;;;;;;5044746;28;1155;-73
2021/10/17 01:39:46;;;;;;;;;;;20.90;62.30;;;;;;5049185;28;1240;-72
2021/10/17 01:42:11;;;;;;;;;;;20.90;62.30;;;;;;5045015;28;1272;-72
2021/10/17 01:44:37;;;;;;;;;;;20.90;62.30;;;;;;5047268;28;1152;-72
2021/10/17 01:47:04;;;;;;;;;;;20.90;62.30;;;;;;5043891;28;1910;-72
2021/10/17 01:49:29;;;;;;;;;;;20.90;62.30;;;;;;5043411;28;1525;-72
2021/10/17 01:51:55;;;;;;;;;;;20.80;62.30;;;;;;5047081;28;1367;-72
2021/10/17 01:54:20;;;;;;;;;;;20.90;62.40;;;;;;5042513;28;1250;-72
2021/10/17 01:56:46;;;;;;;;;;;20.80;62.30;;;;;;5044374;28;1251;-72
2021/10/17 01:59:11;;;;;;;;;;;20.80;62.30;;;;;;5046424;28;1282;-70
2021/10/17 02:01:37;;;;;;;;;;;20.80;62.30;;;;;;5051609;28;1334;-70
2021/10/17 02:04:03;;;;;;;;;;;20.80;62.40;;;;;;5053183;28;1310;-70
2021/10/17 02:06:28;;;;;;;;;;;20.80;62.30;;;;;;5052826;28;1910;-70
2021/10/17 02:08:54;;;;;;;;;;;20.80;62.40;;;;;;5051473;28;1190;-70
2021/10/17 02:11:19;;;;;;;;;;;20.80;62.40;;;;;;5068299;28;1281;-70
2021/10/17 02:13:45;;;;;;;;;;;20.80;62.40;;;;;;5054115;28;1170;-70
2021/10/17 02:16:10;;;;;;;;;;;20.80;62.40;;;;;;5052555;28;1329;-70
2021/10/17 02:18:35;;;;;;;;;;;20.80;62.40;;;;;;5051577;28;1162;-70
2021/10/17 02:21:01;;;;;;;;;;;20.80;62.40;;;;;;5052938;28;1154;-70
2021/10/17 02:23:26;;;;;;;;;;;20.80;62.40;;;;;;5052426;28;1347;-70
2021/10/17 02:25:52;;;;;;;;;;;20.80;62.40;;;;;;5052308;28;1901;-70
2021/10/17 02:28:17;;;;;;;;;;;20.80;62.50;;;;;;5051406;28;1244;-70
2021/10/17 02:30:42;;;;;;;;;;;20.80;62.40;;;;;;5052607;28;1338;-72
2021/10/17 02:33:08;;;;;;;;;;;20.80;62.50;;;;;;5051579;28;1206;-72
2021/10/17 02:35:33;;;;;;;;;;;20.80;62.50;;;;;;5052758;28;1071;-72
2021/10/17 02:37:59;;;;;;;;;;;20.80;62.50;;;;;;5051354;28;904;-71
2021/10/17 02:40:24;;;;;;;;;;;20.80;62.50;;;;;;5051326;28;1283;-71
2021/10/17 02:42:50;;;;;;;;;;;20.80;62.50;;;;;;5052376;28;1283;-72
2021/10/17 02:45:15;;;;;;;;;;;20.80;62.50;;;;;;5034266;28;1954;-72
2021/10/17 02:47:40;;;;;;;;;;;20.80;62.50;;;;;;5051332;28;963;-72
2021/10/17 02:50:06;;;;;;;;;;;20.80;62.50;;;;;;5051270;28;1518;-72
2021/10/17 02:52:31;;;;;;;;;;;20.80;62.50;;;;;;5052085;28;1311;-72
2021/10/17 02:54:57;;;;;;;;;;;20.80;62.50;;;;;;5052333;28;1412;-71
2021/10/17 02:57:22;;;;;;;;;;;20.80;62.60;;;;;;5052384;28;1262;-72
2021/10/17 02:59:48;;;;;;;;;;;20.80;62.60;;;;;;5051131;28;1367;-71
2021/10/17 03:02:14;;;;;;;;;;;20.80;62.60;;;;;;5052315;28;1353;-72
2021/10/17 03:04:39;;;;;;;;;;;20.80;62.60;;;;;;5050799;28;1485;-72
2021/10/17 03:07:04;;;;;;;;;;;20.80;62.60;;;;;;5052163;28;1894;-72
2021/10/17 03:09:30;;;;;;;;;;;20.80;62.60;;;;;;5052409;28;971;-72
2021/10/17 03:11:55;;;;;;;;;;;20.80;62.60;;;;;;5052274;28;1251;-72
2021/10/17 03:14:21;;;;;;;;;;;20.80;62.70;;;;;;5053957;28;1284;-72
2021/10/17 03:16:46;;;;;;;;;;;20.70;62.60;;;;;;5050985;28;880;-72
2021/10/17 03:19:12;;;;;;;;;;;20.80;62.70;;;;;;5052719;28;1087;-72
2021/10/17 03:21:37;;;;;;;;;;;20.80;62.70;;;;;;5051826;28;1353;-72
2021/10/17 03:24:03;;;;;;;;;;;20.70;62.60;;;;;;5051151;28;1402;-71
2021/10/17 03:26:28;;;;;;;;;;;20.70;62.70;;;;;;5050664;28;1894;-72
2021/10/17 03:28:54;;;;;;;;;;;20.70;62.60;;;;;;5051009;28;1183;-71
2021/10/17 03:31:19;;;;;;;;;;;20.70;62.70;;;;;;5052125;28;829;-71
2021/10/17 03:33:45;;;;;;;;;;;20.70;62.70;;;;;;5051924;28;1274;-72
2021/10/17 03:36:10;;;;;;;;;;;20.70;62.70;;;;;;5051738;28;1284;-71
2021/10/17 03:38:35;;;;;;;;;;;20.80;62.80;;;;;;5051965;28;1278;-71
2021/10/17 03:41:01;;;;;;;;;;;20.80;62.70;;;;;;5052879;28;1260;-71
2021/10/17 03:43:26;;;;;;;;;;;20.80;62.70;;;;;;5055353;28;1216;-71
2021/10/17 03:45:52;;;;;;;;;;;20.80;62.60;;;;;;5055195;28;1907;-72
2021/10/17 03:48:17;;;;;;;;;;;20.80;62.60;;;;;;5055546;28;1277;-71
2021/10/17 03:50:43;;;;;;;;;;;20.80;62.50;;;;;;5055537;28;1377;-72
2021/10/17 03:53:08;;;;;;;;;;;20.80;62.40;;;;;;5055896;28;1298;-72
2021/10/17 03:55:34;;;;;;;;;;;20.90;62.40;;;;;;5055341;28;1031;-72
2021/10/17 03:57:59;;;;;;;;;;;20.90;62.30;;;;;;5055528;28;1055;-71
2021/10/17 04:00:26;;;;;;;;;;;20.90;62.20;;;;;;5055429;28;908;-72
2021/10/17 04:02:52;;;;;;;;;;;20.90;62.10;;;;;;5054225;28;1347;-72
2021/10/17 04:05:18;;;;;;;;;;;20.90;62.10;;;;;;5055084;28;1910;-72
2021/10/17 04:07:45;;;;;;;;;;;21.00;62.10;;;;;;5053913;28;1189;-72
2021/10/17 04:10:10;;;;;;;;;;;21.00;62.00;;;;;;5055204;28;988;-72
2021/10/17 04:12:36;;;;;;;;;;;21.00;61.90;;;;;;5055021;28;1381;-72
2021/10/17 04:15:01;;;;;;;;;;;21.00;61.80;;;;;;5054983;28;873;-72
2021/10/17 04:17:26;;;;;;;;;;;21.00;61.80;;;;;;5055036;28;1066;-72
2021/10/17 04:19:52;;;;;;;;;;;21.00;61.70;;;;;;5053746;28;1294;-74
2021/10/17 04:22:17;;;;;;;;;;;21.10;61.70;;;;;;5036817;28;1301;-72
2021/10/17 04:24:43;;;;;;;;;;;21.10;61.70;;;;;;5053520;28;1379;-71
2021/10/17 04:27:09;;;;;;;;;;;21.10;61.60;;;;;;5054723;28;1969;-72
2021/10/17 04:29:35;;;;;;;;;;;21.10;61.60;;;;;;5054778;28;1607;-72
2021/10/17 04:32:00;;;;;;;;;;;21.10;61.50;;;;;;5054741;28;1300;-72
2021/10/17 04:34:25;;;;;;;;;;;21.10;61.50;;;;;;5045225;28;1854;-72
2021/10/17 04:36:51;;;;;;;;;;;21.10;61.50;;;;;;5050174;28;1853;-70
2021/10/17 04:39:16;;;;;;;;;;;21.10;61.50;;;;;;5052716;28;1367;-73
2021/10/17 04:41:42;;;;;;;;;;;21.10;61.40;;;;;;5041841;28;1273;-72
2021/10/17 04:44:07;;;;;;;;;;;21.20;61.50;;;;;;5111894;22;2111;-69
2021/10/17 04:46:33;;;;;;;;;;;21.10;61.40;;;;;;5073164;28;1906;-69
2021/10/17 04:48:58;;;;;;;;;;;21.10;61.40;;;;;;5093008;28;1412;-69
2021/10/17 04:51:24;;;;;;;;;;;21.10;61.40;;;;;;5093046;28;1548;-69
2021/10/17 04:53:49;;;;;;;;;;;21.20;61.40;;;;;;5078831;28;1633;-69
2021/10/17 04:56:14;;;;;;;;;;;21.10;61.30;;;;;;5074151;28;1554;-69
2021/10/17 04:58:40;;;;;;;;;;;21.10;61.30;;;;;;5074231;28;1733;-69
2021/10/17 05:01:07;;;;;;;;;;;21.20;61.40;;;;;;5074058;28;1442;-69
2021/10/17 05:03:32;;;;;;;;;;;21.20;61.40;;;;;;5072684;28;1705;-68
2021/10/17 05:05:58;;;;;;;;;;;21.20;61.40;;;;;;5073682;28;1890;-69
2021/10/17 05:08:23;;;;;;;;;;;21.20;61.40;;;;;;5074045;28;1408;-68
2021/10/17 05:10:49;;;;;;;;;;;21.20;61.30;;;;;;5074106;28;1385;-68
2021/10/17 05:13:14;;;;;;;;;;;21.20;61.30;;;;;;5073429;28;1400;-69
2021/10/17 05:15:40;;;;;;;;;;;21.20;61.30;;;;;;5073720;28;1671;-68
2021/10/17 05:18:05;;;;;;;;;;;21.20;61.20;;;;;;5073757;28;1743;-69
2021/10/17 05:20:31;;;;;;;;;;;21.10;61.20;;;;;;5073819;28;1638;-69
2021/10/17 05:22:56;;;;;;;;;;;21.20;61.20;;;;;;5073726;28;1684;-69
2021/10/17 05:25:21;;;;;;;;;;;21.20;61.20;;;;;;5072627;28;1951;-69
2021/10/17 05:27:47;;;;;;;;;;;21.20;61.20;;;;;;5073265;28;1668;-69
2021/10/17 05:30:12;;;;;;;;;;;21.20;61.20;;;;;;5073763;28;1416;-69
2021/10/17 05:32:38;;;;;;;;;;;21.20;61.20;;;;;;5073639;28;1637;-69
2021/10/17 05:35:03;;;;;;;;;;;21.20;61.40;;;;;;5073270;28;1000;-69
2021/10/17 05:37:29;;;;;;;;;;;21.20;61.10;;;;;;5073560;28;1367;-69
2021/10/17 05:39:54;;;;;;;;;;;21.20;61.20;;;;;;5073612;28;1637;-69
2021/10/17 05:42:20;;;;;;;;;;;21.20;61.10;;;;;;5072996;28;1695;-68
2021/10/17 05:44:45;;;;;;;;;;;21.20;61.10;;;;;;5071468;28;2066;-68
2021/10/17 05:47:10;;;;;;;;;;;21.20;61.10;;;;;;5073172;28;1980;-69
2021/10/17 05:49:37;;;;;;;;;;;21.20;61.10;;;;;;5072544;28;1382;-69
2021/10/17 05:52:03;;;;;;;;;;;21.20;61.10;;;;;;5073361;28;1393;-68
2021/10/17 05:54:29;;;;;;;;;;;21.20;61.10;;;;;;5072845;28;1568;-69
2021/10/17 05:56:54;;;;;;;;;;;21.20;61.00;;;;;;5073361;28;1620;-70
2021/10/17 05:59:20;;;;;;;;;;;21.20;61.00;;;;;;5073171;28;1360;-68
2021/10/17 06:01:45;;;;;;;;;;;21.20;61.00;;;;;;5072840;28;1401;-68
2021/10/17 06:04:11;;;;;;;;;;;21.20;59.20;;;;;;5071778;28;1584;-67
2021/10/17 06:06:40;;;;;;;;;;;21.20;57.80;;;;;;5071844;28;1906;-68
2021/10/17 06:09:05;;;;;;;;;;;21.20;57.50;;;;;;5072971;28;1575;-68
2021/10/17 06:11:32;;;;;;;;;;;21.30;56.00;;;;;;5073256;28;1383;-68
2021/10/17 06:13:57;;;;;;;;;;;21.20;56.70;;;;;;5072523;28;1379;-68
2021/10/17 06:16:23;;;;;;;;;;;21.30;56.80;;;;;;5071499;28;1683;-67
2021/10/17 06:18:48;;;;;;;;;;;21.30;56.20;;;;;;5072804;28;1665;-69
2021/10/17 06:21:13;;;;;;;;;;;21.30;55.20;;;;;;5071790;28;1651;-69
2021/10/17 06:23:39;;;;;;;;;;;21.40;54.50;;;;;;5071637;28;1722;-70
2021/10/17 06:26:04;;;;;;;;;;;21.40;53.80;;;;;;5072352;28;1940;-69
2021/10/17 06:28:30;;;;;;;;;;;21.50;53.40;;;;;;5072713;28;1628;-69
2021/10/17 06:30:55;;;;;;;;;;;21.50;52.80;;;;;;5072721;28;1711;-69
2021/10/17 06:33:20;;;;;;;;;;;21.60;52.40;;;;;;5072489;28;1694;-69
2021/10/17 06:35:46;;;;;;;;;;;21.60;51.90;;;;;;5072648;28;1626;-68
2021/10/17 06:38:11;;;;;;;;;;;21.60;51.80;;;;;;5072438;28;1639;-68
2021/10/17 06:40:37;;;;;;;;;;;21.70;51.20;;;;;;5072775;28;1707;-69
2021/10/17 06:43:03;;;;;;;;;;;21.70;50.80;;;;;;5072290;28;1542;-68
2021/10/17 06:45:28;;;;;;;;;;;21.70;50.40;;;;;;5072205;28;1973;-69
2021/10/17 06:47:54;;;;;;;;;;;21.70;50.10;;;;;;5071512;28;1677;-70
2021/10/17 06:50:20;;;;;;;;;;;21.70;50.10;;;;;;5072471;28;1410;-70
2021/10/17 06:52:49;;;;;;;;;;;21.70;49.70;;;;;;5067485;28;2256;-69
2021/10/17 06:55:15;;;;;;;;;;;21.70;49.50;;;;;;5071409;28;1647;-68
2021/10/17 06:57:40;;;;;;;;;;;21.80;49.60;;;;;;5072595;28;1567;-68
2021/10/17 07:00:06;;;;;;;;;;;21.80;49.80;;;;;;5072324;28;1682;-68
2021/10/17 07:02:31;;;;;;;;;;;21.80;49.80;;;;;;5072275;28;1714;-68
2021/10/17 07:04:57;;;;;;;;;;;21.90;50.10;;;;;;5072089;28;1588;-69
2021/10/17 07:07:22;;;;;;;;;;;21.90;50.20;;;;;;5072488;28;1949;-68
2021/10/17 07:09:47;;;;;;;;;;;22.00;50.40;;;;;;5072369;28;1602;-68
2021/10/17 07:12:13;;;;;;;;;;;22.00;50.60;;;;;;5064981;28;2272;-69
2021/10/17 07:14:38;;;;;;;;;;;22.10;50.90;;;;;;5072095;28;1605;-69
2021/10/17 07:17:04;;;;;;;;;;;22.10;51.00;;;;;;5076091;28;1496;-68
2021/10/17 07:19:29;;;;;;;;;;;22.10;51.20;;;;;;5076350;28;1716;-68
2021/10/17 07:21:55;;;;;;;;;;;22.20;51.30;;;;;;5076103;28;1331;-69
2021/10/17 07:24:20;;;;;;;;;;;22.20;51.60;;;;;;5075700;28;1469;-69
2021/10/17 07:26:45;;;;;;;;;;;22.20;51.80;;;;;;5076027;28;1898;-69
2021/10/17 07:29:11;;;;;;;;;;;22.20;51.90;;;;;;5076058;28;1378;-69
2021/10/17 07:31:36;;;;;;;;;;;22.20;52.00;;;;;;5075850;28;1397;-69
2021/10/17 07:34:02;;;;;;;;;;;22.20;52.20;;;;;;5075592;28;1727;-69
2021/10/17 07:36:27;;;;;;;;;;;22.30;52.40;;;;;;5075692;28;1357;-69
2021/10/17 07:38:52;;;;;;;;;;;22.30;52.60;;;;;;5075957;28;1642;-68
2021/10/17 07:41:20;;;;;;;;;;;22.30;52.70;;;;;;5075894;28;1379;-68
2021/10/17 07:43:45;;;;;;;;;;;22.30;52.90;;;;;;5075558;28;1690;-68
2021/10/17 07:46:11;;;;;;;;;;;22.30;52.80;;;;;;5075377;28;1964;-68
2021/10/17 07:48:38;;;;;;;;;;;22.30;52.70;;;;;;5075600;28;1611;-68
2021/10/17 07:51:04;;;;;;;;;;;22.30;52.80;;;;;;5075635;28;1384;-67
2021/10/17 07:53:29;;;;;;;;;;;22.30;52.90;;;;;;5075450;28;1732;-67
2021/10/17 07:55:55;;;;;;;;;;;22.30;53.00;;;;;;5070319;28;1994;-67
2021/10/17 07:58:20;;;;;;;;;;;22.30;53.00;;;;;;5064826;28;1869;-68
2021/10/17 08:00:46;;;;;;;;;;;22.30;53.10;;;;;;5073735;28;1587;-68
2021/10/17 08:03:11;;;;;;;;;;;22.30;53.20;;;;;;5075228;28;1668;-67
2021/10/17 08:05:36;;;;;;;;;;;22.20;53.20;;;;;;5074197;28;1927;-68
2021/10/17 08:08:02;;;;;;;;;;;22.20;53.30;;;;;;5075228;28;1646;-67
2021/10/17 08:10:27;;;;;;;;;;;22.30;53.50;;;;;;5075217;28;1661;-67
2021/10/17 08:12:53;;;;;;;;;;;22.20;53.50;;;;;;5075118;28;1701;-67
2021/10/17 08:15:18;;;;;;;;;;;22.30;53.60;;;;;;5074565;28;1606;-68
2021/10/17 08:17:44;;;;;;;;;;;22.30;53.70;;;;;;5074993;28;1281;-68
2021/10/17 08:20:09;;;;;;;;;;;22.20;53.70;;;;;;5075106;28;1643;-68
2021/10/17 08:22:35;;;;;;;;;;;22.30;53.80;;;;;;5075022;28;1438;-68
2021/10/17 08:25:00;;;;;;;;;;;22.30;53.90;;;;;;5074884;28;1609;-69
2021/10/17 08:27:26;;;;;;;;;;;22.20;53.90;;;;;;5072258;28;1906;-70
2021/10/17 08:29:51;;;;;;;;;;;22.20;54.00;;;;;;5074551;28;1655;-70
2021/10/17 08:32:17;;;;;;;;;;;22.20;54.00;;;;;;5074778;28;1625;-69
2021/10/17 08:34:42;;;;;;;;;;;22.20;54.10;;;;;;5074383;28;1652;-69
2021/10/17 08:37:08;;;;;;;;;;;22.20;54.20;;;;;;5074451;28;1366;-69
2021/10/17 08:39:33;;;;;;;;;;;22.20;54.30;;;;;;5074590;28;1242;-69
2021/10/17 08:41:58;;;;;;;;;;;22.20;54.40;;;;;;5074533;28;1387;-68
2021/10/17 08:44:24;;;;;;;;;;;22.20;54.50;;;;;;5073963;28;1565;-68
2021/10/17 08:46:49;;;;;;;;;;;22.20;54.60;;;;;;5074035;28;1901;-69
2021/10/17 08:49:15;;;;;;;;;;;22.10;54.60;;;;;;5074502;28;1436;-69
2021/10/17 08:51:40;;;;;;;;;;;22.10;54.70;;;;;;5073102;28;1660;-69
2021/10/17 08:54:06;;;;;;;;;;;22.10;54.70;;;;;;5074180;28;1494;-69
2021/10/17 08:56:31;;;;;;;;;;;22.10;54.80;;;;;;5072923;28;1642;-68
2021/10/17 08:58:57;;;;;;;;;;;22.10;54.90;;;;;;5073806;28;1403;-68
2021/10/17 09:01:23;;;;;;;;;;;22.10;55.00;;;;;;5074131;28;1695;-66
2021/10/17 09:03:56;;;;;;;;;;;22.10;55.10;;;;;;5074034;28;1393;-67
2021/10/17 09:06:27;;;;;;;;;;;22.10;55.10;;;;;;5074016;28;1910;-66
2021/10/17 09:09:05;;;;;;;;;;;22.10;55.20;;;;;;5072863;28;1249;-66
2021/10/17 09:11:37;;;;;;;;;;;22.00;55.20;;;;;;5073875;28;1674;-68
2021/10/17 09:14:09;;;;;;;;;;;22.10;55.20;;;;;;5072369;28;1612;-68
2021/10/17 09:16:42;;;;;;;;;;;22.10;55.20;;;;;;5072957;28;1448;-67
2021/10/17 09:19:08;;;;;;;;;;;22.10;55.80;;;;;;5072810;28;1711;-67
2021/10/17 09:21:33;;;;;;;;;;;22.10;55.20;;;;;;5074031;28;1653;-67
2021/10/17 09:23:59;;;;;;;;;;;22.20;55.30;;;;;;5073670;28;1449;-67
2021/10/17 09:26:24;;;;;;;;;;;22.20;55.30;;;;;;5073569;28;1967;-67
2021/10/17 09:28:49;;;;;;;;;;;22.20;55.30;;;;;;5073735;28;1652;-67
2021/10/17 09:31:16;;;;;;;;;;;22.20;55.30;;;;;;5073739;28;1684;-67
2021/10/17 09:33:48;;;;;;;;;;;22.30;55.30;;;;;;5073606;28;1702;-67
2021/10/17 09:36:21;;;;;;;;;;;22.30;55.30;;;;;;5068445;28;1618;-68
2021/10/17 09:38:48;;;;;;;;;;;22.30;55.30;;;;;;5071381;28;1620;-67
2021/10/17 09:41:19;;;;;;;;;;;22.30;55.30;;;;;;5073258;28;1251;-68
2021/10/17 09:43:54;;;;;;;;;;;22.30;55.30;;;;;;5071741;28;1351;-68
2021/10/17 09:46:20;;;;;;;;;;;22.40;55.30;;;;;;5071736;28;1902;-68
2021/10/17 09:48:45;;;;;;;;;;;22.40;55.20;;;;;;5072039;28;1375;-67
2021/10/17 09:51:11;;;;;;;;;;;22.40;55.20;;;;;;5070982;28;1204;-67
2021/10/17 09:53:40;;;;;;;;;;;22.40;55.20;;;;;;5073255;28;1309;-67
2021/10/17 09:56:05;;;;;;;;;;;22.40;55.20;;;;;;5072918;28;1374;-68
2021/10/17 09:58:31;;;;;;;;;;;22.40;55.20;;;;;;5073170;28;1686;-68
2021/10/17 10:00:56;;;;;;;;;;;22.40;55.20;;;;;;5073211;28;1328;-69
2021/10/17 10:03:23;;;;;;;;;;;22.40;55.20;;;;;;5072951;28;1523;-67
2021/10/17 10:05:49;;;;;;;;;;;22.40;55.20;;;;;;5072623;28;1953;-68
2021/10/17 10:08:21;;;;;;;;;;;22.40;55.20;;;;;;5071966;28;1818;-69
2021/10/17 10:10:46;;;;;;;;;;;22.40;55.30;;;;;;5073209;28;1652;-69
2021/10/17 10:13:12;;;;;;;;;;;22.40;55.30;;;;;;5071926;28;1428;-69
2021/10/17 10:15:37;;;;;;;;;;;22.40;55.40;;;;;;5072477;28;1590;-69
2021/10/17 10:18:04;;;;;;;;;;;22.40;55.30;;;;;;5071845;28;1655;-69
2021/10/17 10:20:29;;;;;;;;;;;22.40;55.40;;;;;;5073010;28;1630;-69
2021/10/17 10:22:55;;;;;;;;;;;22.40;55.50;;;;;;5071844;28;1413;-69
2021/10/17 10:25:20;;;;;;;;;;;22.40;55.50;;;;;;5071536;28;1704;-69
2021/10/17 10:27:46;;;;;;;;;;;22.40;55.50;;;;;;5071581;28;1964;-69
2021/10/17 10:30:25;;;;;;;;;;;22.40;55.60;;;;;;5071778;28;1598;-68
2021/10/17 10:33:09;;;;;;;;;;;22.40;55.60;;;;;;5071607;28;1658;-68
2021/10/17 10:35:35;;;;;;;;;;;22.30;55.60;;;;;;5072268;28;1687;-68
2021/10/17 10:38:00;;;;;;;;;;;22.40;55.80;;;;;;5071612;28;1346;-69
2021/10/17 10:40:25;;;;;;;;;;;22.30;55.80;;;;;;5072818;28;1346;-69
2021/10/17 10:42:51;;;;;;;;;;;22.30;55.80;;;;;;5072825;28;1622;-69
2021/10/17 10:45:33;;;;;;;;;;;22.30;55.90;;;;;;5071957;28;1169;-69
2021/10/17 10:48:11;;;;;;;;;;;22.30;55.90;;;;;;5071588;28;1338;-69
2021/10/17 10:50:37;;;;;;;;;;;22.30;56.00;;;;;;5074419;28;1268;-70
2021/10/17 10:53:02;;;;;;;;;;;22.30;56.00;;;;;;5076574;28;1298;-69
2021/10/17 10:55:44;;;;;;;;;;;22.30;56.00;;;;;;5076108;28;1178;-69
2021/10/17 10:58:19;;;;;;;;;;;22.30;56.10;;;;;;5076431;28;1280;-69
2021/10/17 11:00:44;;;;;;;;;;;22.30;56.10;;;;;;5076630;28;1275;-69
2021/10/17 11:03:12;;;;;;;;;;;22.30;56.10;;;;;;5076452;28;1247;-69
2021/10/17 11:05:37;;;;;;;;;;;22.30;56.10;;;;;;5076022;28;1898;-69
2021/10/17 11:08:12;;;;;;;;;;;22.30;56.10;;;;;;5076179;28;1325;-69
2021/10/17 11:10:38;;;;;;;;;;;22.30;56.10;;;;;;5075934;28;1338;-68
2021/10/17 11:13:04;;;;;;;;;;;22.30;56.10;;;;;;5076115;28;1292;-68
2021/10/17 11:15:30;;;;;;;;;;;22.30;56.10;;;;;;5074575;28;1103;-69
2021/10/17 11:17:56;;;;;;;;;;;22.30;56.10;;;;;;5074923;28;1135;-68
2021/10/17 11:20:23;;;;;;;;;;;22.40;56.10;;;;;;5074840;28;1340;-68
2021/10/17 11:22:48;;;;;;;;;;;22.40;56.10;;;;;;5074735;28;1518;-67
2021/10/17 11:25:14;;;;;;;;;;;22.40;56.10;;;;;;5075413;28;1247;-68
2021/10/17 11:27:39;;;;;;;;;;;22.40;56.10;;;;;;5075864;28;1906;-68
2021/10/17 11:30:05;;;;;;;;;;;22.40;56.10;;;;;;5074645;28;1312;-69
2021/10/17 11:32:34;;;;;;;;;;;22.40;56.10;;;;;;5075743;28;1638;-70
2021/10/17 11:35:01;;;;;;;;;;;22.40;56.10;;;;;;5075516;28;1149;-69
2021/10/17 11:37:28;;;;;;;;;;;22.40;56.10;;;;;;5074369;28;1299;-69
2021/10/17 11:39:57;;;;;;;;;;;22.40;56.10;;;;;;5074007;28;2065;-69
2021/10/17 11:42:25;;;;;;;;;;;22.40;56.10;;;;;;5073444;28;1861;-69
2021/10/17 11:44:51;;;;;;;;;;;22.40;56.20;;;;;;5075096;28;1185;-69
2021/10/17 11:47:17;;;;;;;;;;;22.40;56.20;;;;;;5074316;28;1981;-69
2021/10/17 11:49:43;;;;;;;;;;;22.40;56.20;;;;;;5075502;28;1141;-69
2021/10/17 11:52:11;;;;;;;;;;;22.40;56.30;;;;;;5072233;28;1381;-69
2021/10/17 11:54:46;;;;;;;;;;;22.40;56.30;;;;;;5075401;28;1268;-69
2021/10/17 11:57:30;;;;;;;;;;;22.40;56.30;;;;;;5075565;28;1012;-69
2021/10/17 12:00:05;;;;;;;;;;;22.40;56.40;;;;;;5075330;28;1197;-69
2021/10/17 12:02:31;;;;;;;;;;;22.40;56.50;;;;;;5073906;28;1305;-69
2021/10/17 12:04:56;;;;;;;;;;;22.40;56.40;;;;;;5074839;28;1372;-68
2021/10/17 12:07:22;;;;;;;;;;;22.30;56.40;;;;;;5075143;28;1898;-68
2021/10/17 12:09:47;;;;;;;;;;;22.30;56.40;;;;;;5074967;28;1228;-69
2021/10/17 12:12:13;;;;;;;;;;;22.30;56.50;;;;;;5075026;28;1299;-68
2021/10/17 12:14:38;;;;;;;;;;;22.30;56.50;;;;;;5073295;28;1222;-68
2021/10/17 12:17:03;;;;;;;;;;;22.30;56.60;;;;;;5073549;28;1316;-68
2021/10/17 12:19:29;;;;;;;;;;;22.30;56.60;;;;;;5073439;28;1819;-68
2021/10/17 12:21:55;;;;;;;;;;;22.30;56.60;;;;;;5067448;28;1891;-68
2021/10/17 12:24:20;;;;;;;;;;;22.30;56.70;;;;;;5064810;28;1339;-68
2021/10/17 12:26:52;;;;;;;;;;;22.30;56.70;;;;;;5074745;28;1961;-68
2021/10/17 12:29:18;;;;;;;;;;;22.30;56.70;;;;;;5073602;28;1277;-68
2021/10/17 12:31:44;;;;;;;;;;;22.30;56.70;;;;;;5073619;28;1235;-68
2021/10/17 12:34:10;;;;;;;;;;;22.30;56.80;;;;;;5074638;28;1356;-68
2021/10/17 12:36:36;;;;;;;;;;;22.20;56.80;;;;;;5074728;28;1260;-68
2021/10/17 12:39:05;;;;;;;;;;;22.20;56.80;;;;;;5072885;28;1372;-68
2021/10/17 12:41:30;;;;;;;;;;;22.20;56.90;;;;;;5081048;28;1345;-68
2021/10/17 12:44:03;;;;;;;;;;;22.20;56.90;;;;;;5074000;28;1239;-68
2021/10/17 12:46:28;;;;;;;;;;;22.20;57.00;;;;;;5070603;28;1901;-68
2021/10/17 12:48:54;;;;;;;;;;;22.20;57.00;;;;;;5072952;28;1449;-68
2021/10/17 12:51:37;;;;;;;;;;;22.20;57.10;;;;;;5073978;28;1156;-68
2021/10/17 12:54:12;;;;;;;;;;;22.20;57.10;;;;;;5072788;28;1371;-67
2021/10/17 12:56:38;;;;;;;;;;;22.20;57.20;;;;;;5073566;28;1159;-67
2021/10/17 12:59:04;;;;;;;;;;;22.10;57.20;;;;;;5073896;28;1215;-68
2021/10/17 13:01:30;;;;;;;;;;;22.10;57.20;;;;;;5074036;28;1234;-68
2021/10/17 13:04:08;;;;;;;;;;;22.10;57.30;;;;;;5072770;28;1340;-68
2021/10/17 13:06:34;;;;;;;;;;;22.10;57.30;;;;;;5073909;28;1897;-69
2021/10/17 13:08:59;;;;;;;;;;;22.10;57.30;;;;;;5073958;28;1075;-69
2021/10/17 13:11:24;;;;;;;;;;;22.10;57.30;;;;;;5072533;28;1114;-69
2021/10/17 13:13:50;;;;;;;;;;;22.10;57.40;;;;;;5072222;28;1483;-69
2021/10/17 13:16:23;;;;;;;;;;;22.10;57.40;;;;;;5071426;28;1349;-69
2021/10/17 13:18:48;;;;;;;;;;;22.10;57.40;;;;;;5072063;28;1483;-68
2021/10/17 13:21:13;;;;;;;;;;;22.10;57.40;;;;;;5073621;28;1319;-68
2021/10/17 13:23:39;;;;;;;;;;;22.10;57.50;;;;;;5072729;28;1341;-68
2021/10/17 13:26:04;;;;;;;;;;;22.10;57.50;;;;;;5073394;28;1993;-69
2021/10/17 13:28:30;;;;;;;;;;;22.10;57.50;;;;;;5072288;28;1258;-69
2021/10/17 13:30:55;;;;;;;;;;;22.00;57.50;;;;;;5073369;28;1174;-67
2021/10/17 13:33:21;;;;;;;;;;;22.00;57.50;;;;;;5072919;28;1316;-67
2021/10/17 13:35:46;;;;;;;;;;;22.00;57.50;;;;;;5070951;28;1810;-68
2021/10/17 13:38:14;;;;;;;;;;;22.00;57.60;;;;;;5069687;28;1136;-67
2021/10/17 13:40:39;;;;;;;;;;;22.00;57.60;;;;;;5072256;28;1191;-67
2021/10/17 13:43:05;;;;;;;;;;;22.00;57.60;;;;;;5060862;28;1902;-68
2021/10/17 13:45:31;;;;;;;;;;;22.00;57.60;;;;;;5065238;28;1404;-67
2021/10/17 13:47:57;;;;;;;;;;;22.00;57.70;;;;;;5068237;28;1894;-67
2021/10/17 13:50:22;;;;;;;;;;;22.00;57.70;;;;;;5052882;28;1276;-67
2021/10/17 13:52:48;;;;;;;;;;;22.00;57.70;;;;;;5072438;28;1298;-67
2021/10/17 13:55:13;;;;;;;;;;;22.00;57.70;;;;;;5071801;28;1260;-68
2021/10/17 13:57:39;;;;;;;;;;;22.00;57.80;;;;;;5070513;28;1292;-69
2021/10/17 14:00:05;;;;;;;;;;;22.00;57.80;;;;;;5071523;28;1348;-69
2021/10/17 14:02:30;;;;;;;;;;;22.00;57.80;;;;;;5071497;28;1353;-69
2021/10/17 14:04:56;;;;;;;;;;;22.00;57.80;;;;;;5070316;28;1332;-69
2021/10/17 14:07:21;;;;;;;;;;;22.00;57.90;;;;;;5071563;28;1965;-67
2021/10/17 14:09:47;;;;;;;;;;;22.00;57.90;;;;;;5071497;28;1299;-69
2021/10/17 14:12:12;;;;;;;;;;;21.90;57.80;;;;;;5071709;28;1272;-69
2021/10/17 14:14:38;;;;;;;;;;;21.90;57.90;;;;;;5071187;28;1214;-68
2021/10/17 14:17:03;;;;;;;;;;;21.90;57.90;;;;;;5071732;28;1258;-69
2021/10/17 14:19:29;;;;;;;;;;;21.90;57.90;;;;;;5071860;28;1274;-69
2021/10/17 14:21:54;;;;;;;;;;;21.90;57.90;;;;;;5071552;28;1319;-68
2021/10/17 14:24:20;;;;;;;;;;;21.90;58.00;;;;;;5069461;28;1366;-69